sensor_id;sensor_type;location;lat;lon;timestamp;P1;durP1;ratioP1;P2;durP2;ratioP2
45358;SDS011;31096;49.292;8.710;2022-07-06T00:00:20;4.73;;;2.60;;
45358;SDS011;31096;49.292;8.710;2022-07-06T00:05:11;4.70;;;2.60;;
45358;SDS011;31096;49.292;8.710;2022-07-06T00:10:02;4.90;;;2.77;;
45358;SDS011;31096;49.292;8.710;2022-07-06T00:14:54;4.97;;;2.75;;
45358;SDS011;31096;49.292;8.710;2022-07-06T00:19:44;5.10;;;2.53;;
45358;SDS011;31096;49.292;8.710;2022-07-06T00:24:35;5.33;;;2.83;;
45358;SDS011;31096;49.292;8.710;2022-07-06T00:29:25;4.70;;;2.70;;
45358;SDS011;31096;49.292;8.710;2022-07-06T00:34:16;5.93;;;2.60;;
45358;SDS011;31096;49.292;8.710;2022-07-06T00:39:07;5.57;;;2.90;;
45358;SDS011;31096;49.292;8.710;2022-07-06T00:43:57;4.78;;;2.90;;
45358;SDS011;31096;49.292;8.710;2022-07-06T00:48:48;6.63;;;2.80;;
45358;SDS011;31096;49.292;8.710;2022-07-06T00:53:39;5.80;;;2.60;;
45358;SDS011;31096;49.292;8.710;2022-07-06T00:58:30;6.28;;;2.80;;
45358;SDS011;31096;49.292;8.710;2022-07-06T01:03:21;4.40;;;2.57;;
45358;SDS011;31096;49.292;8.710;2022-07-06T01:08:12;5.68;;;3.00;;
45358;SDS011;31096;49.292;8.710;2022-07-06T01:13:02;4.93;;;2.53;;
45358;SDS011;31096;49.292;8.710;2022-07-06T01:17:53;5.37;;;2.77;;
45358;SDS011;31096;49.292;8.710;2022-07-06T01:22:44;5.50;;;2.78;;
45358;SDS011;31096;49.292;8.710;2022-07-06T01:27:37;5.20;;;2.67;;
45358;SDS011;31096;49.292;8.710;2022-07-06T01:32:29;7.53;;;2.90;;
45358;SDS011;31096;49.292;8.710;2022-07-06T01:37:20;5.25;;;2.97;;
45358;SDS011;31096;49.292;8.710;2022-07-06T01:42:11;4.70;;;2.80;;
45358;SDS011;31096;49.292;8.710;2022-07-06T01:47:01;4.63;;;2.93;;
45358;SDS011;31096;49.292;8.710;2022-07-06T01:51:52;5.70;;;3.13;;
45358;SDS011;31096;49.292;8.710;2022-07-06T01:56:43;6.27;;;2.83;;
45358;SDS011;31096;49.292;8.710;2022-07-06T02:01:34;5.60;;;2.92;;
45358;SDS011;31096;49.292;8.710;2022-07-06T02:06:24;4.87;;;2.90;;
45358;SDS011;31096;49.292;8.710;2022-07-06T02:11:15;6.77;;;3.30;;
45358;SDS011;31096;49.292;8.710;2022-07-06T02:16:06;6.38;;;3.08;;
45358;SDS011;31096;49.292;8.710;2022-07-06T02:20:57;6.13;;;3.20;;
45358;SDS011;31096;49.292;8.710;2022-07-06T02:25:47;5.20;;;3.55;;
45358;SDS011;31096;49.292;8.710;2022-07-06T02:30:38;5.33;;;3.10;;
45358;SDS011;31096;49.292;8.710;2022-07-06T02:35:29;5.47;;;2.90;;
45358;SDS011;31096;49.292;8.710;2022-07-06T02:40:19;6.93;;;3.17;;
45358;SDS011;31096;49.292;8.710;2022-07-06T02:45:10;5.67;;;2.90;;
45358;SDS011;31096;49.292;8.710;2022-07-06T02:50:01;9.65;;;3.20;;
45358;SDS011;31096;49.292;8.710;2022-07-06T02:54:52;5.67;;;2.67;;
45358;SDS011;31096;49.292;8.710;2022-07-06T02:59:43;5.70;;;3.33;;
45358;SDS011;31096;49.292;8.710;2022-07-06T03:04:34;5.17;;;3.03;;
45358;SDS011;31096;49.292;8.710;2022-07-06T03:09:25;4.88;;;2.78;;
45358;SDS011;31096;49.292;8.710;2022-07-06T03:14:15;5.77;;;3.00;;
45358;SDS011;31096;49.292;8.710;2022-07-06T03:19:06;7.40;;;3.17;;
45358;SDS011;31096;49.292;8.710;2022-07-06T03:23:57;5.93;;;3.00;;
45358;SDS011;31096;49.292;8.710;2022-07-06T03:28:47;6.10;;;2.80;;
45358;SDS011;31096;49.292;8.710;2022-07-06T03:33:38;4.95;;;3.20;;
45358;SDS011;31096;49.292;8.710;2022-07-06T03:38:29;5.03;;;3.10;;
45358;SDS011;31096;49.292;8.710;2022-07-06T03:43:19;6.77;;;3.20;;
45358;SDS011;31096;49.292;8.710;2022-07-06T03:48:10;5.72;;;2.90;;
45358;SDS011;31096;49.292;8.710;2022-07-06T03:53:01;5.73;;;3.20;;
45358;SDS011;31096;49.292;8.710;2022-07-06T03:57:51;5.73;;;2.60;;
45358;SDS011;31096;49.292;8.710;2022-07-06T04:02:42;5.13;;;2.80;;
45358;SDS011;31096;49.292;8.710;2022-07-06T04:07:33;4.77;;;2.93;;
45358;SDS011;31096;49.292;8.710;2022-07-06T04:12:24;6.67;;;3.07;;
45358;SDS011;31096;49.292;8.710;2022-07-06T04:17:14;7.37;;;3.10;;
45358;SDS011;31096;49.292;8.710;2022-07-06T04:22:31;7.40;;;3.28;;
45358;SDS011;31096;49.292;8.710;2022-07-06T04:27:22;5.27;;;2.70;;
45358;SDS011;31096;49.292;8.710;2022-07-06T04:32:13;5.03;;;2.77;;
45358;SDS011;31096;49.292;8.710;2022-07-06T04:37:03;7.72;;;3.28;;
45358;SDS011;31096;49.292;8.710;2022-07-06T04:41:54;5.43;;;2.77;;
45358;SDS011;31096;49.292;8.710;2022-07-06T04:46:45;5.17;;;2.90;;
45358;SDS011;31096;49.292;8.710;2022-07-06T04:51:35;5.00;;;2.70;;
45358;SDS011;31096;49.292;8.710;2022-07-06T04:56:26;7.53;;;2.90;;
45358;SDS011;31096;49.292;8.710;2022-07-06T05:01:16;4.90;;;2.97;;
45358;SDS011;31096;49.292;8.710;2022-07-06T05:06:07;5.83;;;2.40;;
45358;SDS011;31096;49.292;8.710;2022-07-06T05:10:58;5.72;;;2.78;;
45358;SDS011;31096;49.292;8.710;2022-07-06T05:15:49;8.27;;;2.83;;
45358;SDS011;31096;49.292;8.710;2022-07-06T05:20:39;5.88;;;2.80;;
45358;SDS011;31096;49.292;8.710;2022-07-06T05:25:30;4.73;;;2.40;;
45358;SDS011;31096;49.292;8.710;2022-07-06T05:30:22;4.70;;;2.45;;
45358;SDS011;31096;49.292;8.710;2022-07-06T05:35:13;6.43;;;2.40;;
45358;SDS011;31096;49.292;8.710;2022-07-06T05:40:04;6.97;;;2.40;;
45358;SDS011;31096;49.292;8.710;2022-07-06T05:44:55;4.47;;;2.25;;
45358;SDS011;31096;49.292;8.710;2022-07-06T05:49:46;5.32;;;2.20;;
45358;SDS011;31096;49.292;8.710;2022-07-06T05:54:55;5.37;;;2.23;;
45358;SDS011;31096;49.292;8.710;2022-07-06T05:59:46;4.90;;;2.22;;
45358;SDS011;31096;49.292;8.710;2022-07-06T06:04:36;4.53;;;2.23;;
45358;SDS011;31096;49.292;8.710;2022-07-06T06:09:27;4.13;;;2.10;;
45358;SDS011;31096;49.292;8.710;2022-07-06T06:14:18;6.40;;;2.67;;
45358;SDS011;31096;49.292;8.710;2022-07-06T06:19:08;6.97;;;2.30;;
45358;SDS011;31096;49.292;8.710;2022-07-06T06:23:59;5.03;;;2.70;;
45358;SDS011;31096;49.292;8.710;2022-07-06T06:28:50;5.93;;;2.17;;
45358;SDS011;31096;49.292;8.710;2022-07-06T06:33:40;5.63;;;2.40;;
45358;SDS011;31096;49.292;8.710;2022-07-06T06:38:31;7.73;;;2.60;;
45358;SDS011;31096;49.292;8.710;2022-07-06T06:43:22;5.20;;;2.37;;
45358;SDS011;31096;49.292;8.710;2022-07-06T06:48:12;6.83;;;2.43;;
45358;SDS011;31096;49.292;8.710;2022-07-06T06:53:03;6.32;;;2.50;;
45358;SDS011;31096;49.292;8.710;2022-07-06T06:57:54;6.30;;;2.07;;
45358;SDS011;31096;49.292;8.710;2022-07-06T07:02:45;5.80;;;2.37;;
45358;SDS011;31096;49.292;8.710;2022-07-06T07:07:37;5.28;;;2.70;;
45358;SDS011;31096;49.292;8.710;2022-07-06T07:12:28;6.05;;;2.45;;
45358;SDS011;31096;49.292;8.710;2022-07-06T07:17:18;4.43;;;1.80;;
45358;SDS011;31096;49.292;8.710;2022-07-06T07:22:09;5.40;;;2.10;;
45358;SDS011;31096;49.292;8.710;2022-07-06T07:27:00;5.35;;;2.10;;
45358;SDS011;31096;49.292;8.710;2022-07-06T07:31:51;4.20;;;2.00;;
45358;SDS011;31096;49.292;8.710;2022-07-06T07:36:42;4.60;;;2.20;;
45358;SDS011;31096;49.292;8.710;2022-07-06T07:41:33;4.50;;;2.10;;
45358;SDS011;31096;49.292;8.710;2022-07-06T07:46:24;6.22;;;2.25;;
45358;SDS011;31096;49.292;8.710;2022-07-06T07:51:14;5.73;;;2.03;;
45358;SDS011;31096;49.292;8.710;2022-07-06T07:56:05;6.10;;;2.60;;
45358;SDS011;31096;49.292;8.710;2022-07-06T08:00:56;7.20;;;2.10;;
45358;SDS011;31096;49.292;8.710;2022-07-06T08:05:46;4.50;;;2.13;;
45358;SDS011;31096;49.292;8.710;2022-07-06T08:10:38;5.80;;;2.95;;
45358;SDS011;31096;49.292;8.710;2022-07-06T08:15:29;7.10;;;2.80;;
45358;SDS011;31096;49.292;8.710;2022-07-06T08:20:21;7.37;;;2.50;;
45358;SDS011;31096;49.292;8.710;2022-07-06T08:25:11;5.45;;;2.80;;
45358;SDS011;31096;49.292;8.710;2022-07-06T08:30:03;5.67;;;2.43;;
45358;SDS011;31096;49.292;8.710;2022-07-06T08:34:55;4.65;;;2.20;;
45358;SDS011;31096;49.292;8.710;2022-07-06T08:39:46;6.13;;;2.33;;
45358;SDS011;31096;49.292;8.710;2022-07-06T08:44:37;5.30;;;2.22;;
45358;SDS011;31096;49.292;8.710;2022-07-06T08:49:28;6.83;;;2.40;;
45358;SDS011;31096;49.292;8.710;2022-07-06T08:54:21;4.97;;;2.10;;
45358;SDS011;31096;49.292;8.710;2022-07-06T08:59:12;4.80;;;2.15;;
45358;SDS011;31096;49.292;8.710;2022-07-06T09:04:03;4.73;;;2.30;;
45358;SDS011;31096;49.292;8.710;2022-07-06T09:08:57;4.80;;;2.08;;
45358;SDS011;31096;49.292;8.710;2022-07-06T09:13:48;5.68;;;2.40;;
45358;SDS011;31096;49.292;8.710;2022-07-06T09:18:43;6.93;;;2.13;;
45358;SDS011;31096;49.292;8.710;2022-07-06T09:23:35;4.18;;;2.00;;
45358;SDS011;31096;49.292;8.710;2022-07-06T09:28:40;5.70;;;2.13;;
45358;SDS011;31096;49.292;8.710;2022-07-06T09:33:35;3.93;;;2.00;;
45358;SDS011;31096;49.292;8.710;2022-07-06T09:38:26;6.00;;;2.50;;
45358;SDS011;31096;49.292;8.710;2022-07-06T09:43:17;4.90;;;2.35;;
45358;SDS011;31096;49.292;8.710;2022-07-06T09:48:14;4.97;;;2.40;;
45358;SDS011;31096;49.292;8.710;2022-07-06T09:53:08;5.20;;;2.58;;
45358;SDS011;31096;49.292;8.710;2022-07-06T09:58:05;5.28;;;2.55;;
45358;SDS011;31096;49.292;8.710;2022-07-06T10:02:56;7.47;;;2.50;;
45358;SDS011;31096;49.292;8.710;2022-07-06T10:07:48;5.22;;;2.50;;
45358;SDS011;31096;49.292;8.710;2022-07-06T10:12:40;4.88;;;2.20;;
45358;SDS011;31096;49.292;8.710;2022-07-06T10:17:33;5.40;;;2.50;;
45358;SDS011;31096;49.292;8.710;2022-07-06T10:22:24;4.20;;;1.98;;
45358;SDS011;31096;49.292;8.710;2022-07-06T10:27:15;4.73;;;2.30;;
45358;SDS011;31096;49.292;8.710;2022-07-06T10:32:06;4.60;;;2.20;;
45358;SDS011;31096;49.292;8.710;2022-07-06T10:36:58;4.37;;;2.23;;
45358;SDS011;31096;49.292;8.710;2022-07-06T10:41:49;4.57;;;2.20;;
45358;SDS011;31096;49.292;8.710;2022-07-06T10:46:39;5.57;;;2.57;;
45358;SDS011;31096;49.292;8.710;2022-07-06T10:51:30;4.90;;;2.40;;
45358;SDS011;31096;49.292;8.710;2022-07-06T10:56:32;4.17;;;2.03;;
45358;SDS011;31096;49.292;8.710;2022-07-06T11:01:37;4.60;;;2.40;;
45358;SDS011;31096;49.292;8.710;2022-07-06T11:06:31;5.63;;;2.58;;
45358;SDS011;31096;49.292;8.710;2022-07-06T11:11:25;4.90;;;2.33;;
45358;SDS011;31096;49.292;8.710;2022-07-06T11:16:29;6.03;;;2.50;;
45358;SDS011;31096;49.292;8.710;2022-07-06T11:21:33;5.15;;;2.22;;
45358;SDS011;31096;49.292;8.710;2022-07-06T11:26:47;5.33;;;2.50;;
45358;SDS011;31096;49.292;8.710;2022-07-06T11:31:41;4.45;;;2.20;;
45358;SDS011;31096;49.292;8.710;2022-07-06T11:36:33;5.95;;;2.30;;
45358;SDS011;31096;49.292;8.710;2022-07-06T11:41:25;4.70;;;2.23;;
45358;SDS011;31096;49.292;8.710;2022-07-06T11:46:19;5.50;;;2.60;;
45358;SDS011;31096;49.292;8.710;2022-07-06T11:51:10;7.28;;;2.40;;
45358;SDS011;31096;49.292;8.710;2022-07-06T11:56:02;5.40;;;2.33;;
45358;SDS011;31096;49.292;8.710;2022-07-06T12:01:06;6.20;;;2.30;;
45358;SDS011;31096;49.292;8.710;2022-07-06T12:06:02;4.80;;;2.35;;
45358;SDS011;31096;49.292;8.710;2022-07-06T12:10:56;4.28;;;2.40;;
45358;SDS011;31096;49.292;8.710;2022-07-06T12:15:47;3.60;;;1.70;;
45358;SDS011;31096;49.292;8.710;2022-07-06T12:20:38;4.35;;;2.38;;
45358;SDS011;31096;49.292;8.710;2022-07-06T12:25:29;4.53;;;1.90;;
45358;SDS011;31096;49.292;8.710;2022-07-06T12:30:24;5.40;;;2.50;;
45358;SDS011;31096;49.292;8.710;2022-07-06T12:35:15;5.43;;;1.90;;
45358;SDS011;31096;49.292;8.710;2022-07-06T12:40:13;4.18;;;2.10;;
45358;SDS011;31096;49.292;8.710;2022-07-06T12:45:05;4.23;;;2.03;;
45358;SDS011;31096;49.292;8.710;2022-07-06T12:50:05;4.73;;;2.20;;
45358;SDS011;31096;49.292;8.710;2022-07-06T12:55:00;5.00;;;2.55;;
45358;SDS011;31096;49.292;8.710;2022-07-06T12:59:55;4.50;;;2.33;;
45358;SDS011;31096;49.292;8.710;2022-07-06T13:04:58;5.83;;;2.40;;
45358;SDS011;31096;49.292;8.710;2022-07-06T13:09:49;5.20;;;2.15;;
45358;SDS011;31096;49.292;8.710;2022-07-06T13:14:40;4.63;;;2.10;;
45358;SDS011;31096;49.292;8.710;2022-07-06T13:19:30;4.75;;;2.28;;
45358;SDS011;31096;49.292;8.710;2022-07-06T13:24:21;7.60;;;2.33;;
45358;SDS011;31096;49.292;8.710;2022-07-06T13:29:12;4.43;;;2.20;;
45358;SDS011;31096;49.292;8.710;2022-07-06T13:34:03;6.87;;;2.60;;
45358;SDS011;31096;49.292;8.710;2022-07-06T13:38:53;5.40;;;2.13;;
45358;SDS011;31096;49.292;8.710;2022-07-06T13:43:44;9.53;;;2.40;;
45358;SDS011;31096;49.292;8.710;2022-07-06T13:48:35;5.60;;;2.20;;
45358;SDS011;31096;49.292;8.710;2022-07-06T13:53:26;7.00;;;2.30;;
45358;SDS011;31096;49.292;8.710;2022-07-06T13:58:17;5.70;;;2.17;;
45358;SDS011;31096;49.292;8.710;2022-07-06T14:03:08;5.43;;;2.30;;
45358;SDS011;31096;49.292;8.710;2022-07-06T14:07:58;4.00;;;2.07;;
45358;SDS011;31096;49.292;8.710;2022-07-06T14:12:49;5.93;;;2.43;;
45358;SDS011;31096;49.292;8.710;2022-07-06T14:17:40;6.00;;;2.87;;
45358;SDS011;31096;49.292;8.710;2022-07-06T14:22:30;4.75;;;2.63;;
45358;SDS011;31096;49.292;8.710;2022-07-06T14:27:21;5.63;;;2.47;;
45358;SDS011;31096;49.292;8.710;2022-07-06T14:32:12;4.70;;;2.23;;
45358;SDS011;31096;49.292;8.710;2022-07-06T14:37:02;4.72;;;2.45;;
45358;SDS011;31096;49.292;8.710;2022-07-06T14:41:54;4.60;;;2.57;;
45358;SDS011;31096;49.292;8.710;2022-07-06T14:46:44;7.30;;;2.75;;
45358;SDS011;31096;49.292;8.710;2022-07-06T14:51:35;7.17;;;2.17;;
45358;SDS011;31096;49.292;8.710;2022-07-06T14:56:26;6.60;;;2.67;;
45358;SDS011;31096;49.292;8.710;2022-07-06T15:01:16;9.70;;;2.45;;
45358;SDS011;31096;49.292;8.710;2022-07-06T15:06:07;5.20;;;2.57;;
45358;SDS011;31096;49.292;8.710;2022-07-06T15:10:58;4.77;;;2.37;;
45358;SDS011;31096;49.292;8.710;2022-07-06T15:15:48;6.20;;;2.75;;
45358;SDS011;31096;49.292;8.710;2022-07-06T15:20:39;5.20;;;2.60;;
45358;SDS011;31096;49.292;8.710;2022-07-06T15:25:30;6.13;;;2.33;;
45358;SDS011;31096;49.292;8.710;2022-07-06T15:30:21;5.17;;;2.40;;
45358;SDS011;31096;49.292;8.710;2022-07-06T15:35:13;5.43;;;2.40;;
45358;SDS011;31096;49.292;8.710;2022-07-06T15:40:04;7.53;;;2.33;;
45358;SDS011;31096;49.292;8.710;2022-07-06T15:44:58;4.03;;;2.30;;
45358;SDS011;31096;49.292;8.710;2022-07-06T15:49:49;5.88;;;2.17;;
45358;SDS011;31096;49.292;8.710;2022-07-06T15:54:41;4.10;;;2.10;;
45358;SDS011;31096;49.292;8.710;2022-07-06T15:59:32;5.20;;;2.25;;
45358;SDS011;31096;49.292;8.710;2022-07-06T16:04:23;8.40;;;2.47;;
45358;SDS011;31096;49.292;8.710;2022-07-06T16:09:14;6.95;;;2.45;;
45358;SDS011;31096;49.292;8.710;2022-07-06T16:14:04;5.67;;;2.23;;
45358;SDS011;31096;49.292;8.710;2022-07-06T16:18:55;5.82;;;1.90;;
45358;SDS011;31096;49.292;8.710;2022-07-06T16:23:47;5.70;;;2.00;;
45358;SDS011;31096;49.292;8.710;2022-07-06T16:28:38;4.97;;;2.00;;
45358;SDS011;31096;49.292;8.710;2022-07-06T16:33:29;5.00;;;2.33;;
45358;SDS011;31096;49.292;8.710;2022-07-06T16:38:24;5.28;;;2.15;;
45358;SDS011;31096;49.292;8.710;2022-07-06T16:43:15;7.00;;;2.03;;
45358;SDS011;31096;49.292;8.710;2022-07-06T16:48:06;6.45;;;2.20;;
45358;SDS011;31096;49.292;8.710;2022-07-06T16:52:56;6.00;;;2.17;;
45358;SDS011;31096;49.292;8.710;2022-07-06T16:57:48;4.68;;;1.98;;
45358;SDS011;31096;49.292;8.710;2022-07-06T17:02:39;7.17;;;2.43;;
45358;SDS011;31096;49.292;8.710;2022-07-06T17:07:30;4.90;;;2.00;;
45358;SDS011;31096;49.292;8.710;2022-07-06T17:12:20;7.17;;;2.20;;
45358;SDS011;31096;49.292;8.710;2022-07-06T17:17:11;4.35;;;2.13;;
45358;SDS011;31096;49.292;8.710;2022-07-06T17:22:02;7.50;;;2.30;;
45358;SDS011;31096;49.292;8.710;2022-07-06T17:26:53;4.70;;;2.00;;
45358;SDS011;31096;49.292;8.710;2022-07-06T17:31:44;6.73;;;2.30;;
45358;SDS011;31096;49.292;8.710;2022-07-06T17:36:34;4.80;;;1.70;;
45358;SDS011;31096;49.292;8.710;2022-07-06T17:41:25;4.65;;;1.80;;
45358;SDS011;31096;49.292;8.710;2022-07-06T17:46:16;4.00;;;2.00;;
45358;SDS011;31096;49.292;8.710;2022-07-06T17:51:07;6.25;;;2.00;;
45358;SDS011;31096;49.292;8.710;2022-07-06T17:55:58;6.17;;;1.83;;
45358;SDS011;31096;49.292;8.710;2022-07-06T18:00:48;3.73;;;2.00;;
45358;SDS011;31096;49.292;8.710;2022-07-06T18:05:39;4.17;;;1.97;;
45358;SDS011;31096;49.292;8.710;2022-07-06T18:10:30;5.70;;;1.95;;
45358;SDS011;31096;49.292;8.710;2022-07-06T18:15:21;4.30;;;1.80;;
45358;SDS011;31096;49.292;8.710;2022-07-06T18:20:12;3.75;;;1.60;;
45358;SDS011;31096;49.292;8.710;2022-07-06T18:25:03;4.57;;;1.83;;
45358;SDS011;31096;49.292;8.710;2022-07-06T18:29:54;8.60;;;1.77;;
45358;SDS011;31096;49.292;8.710;2022-07-06T18:34:45;4.73;;;1.83;;
45358;SDS011;31096;49.292;8.710;2022-07-06T18:39:35;5.35;;;1.98;;
45358;SDS011;31096;49.292;8.710;2022-07-06T18:44:26;4.23;;;1.90;;
45358;SDS011;31096;49.292;8.710;2022-07-06T18:49:17;4.73;;;1.70;;
45358;SDS011;31096;49.292;8.710;2022-07-06T18:54:08;7.53;;;1.90;;
45358;SDS011;31096;49.292;8.710;2022-07-06T18:58:59;5.07;;;1.83;;
45358;SDS011;31096;49.292;8.710;2022-07-06T19:03:49;4.90;;;1.90;;
45358;SDS011;31096;49.292;8.710;2022-07-06T19:08:40;5.63;;;2.30;;
45358;SDS011;31096;49.292;8.710;2022-07-06T19:13:31;4.43;;;2.10;;
45358;SDS011;31096;49.292;8.710;2022-07-06T19:18:23;4.87;;;1.80;;
45358;SDS011;31096;49.292;8.710;2022-07-06T19:23:14;4.20;;;1.97;;
45358;SDS011;31096;49.292;8.710;2022-07-06T19:28:04;5.93;;;2.00;;
45358;SDS011;31096;49.292;8.710;2022-07-06T19:32:55;5.03;;;1.85;;
45358;SDS011;31096;49.292;8.710;2022-07-06T19:37:46;4.33;;;2.27;;
45358;SDS011;31096;49.292;8.710;2022-07-06T19:42:36;5.80;;;2.33;;
45358;SDS011;31096;49.292;8.710;2022-07-06T19:47:27;4.63;;;2.20;;
45358;SDS011;31096;49.292;8.710;2022-07-06T19:52:18;5.10;;;2.20;;
45358;SDS011;31096;49.292;8.710;2022-07-06T19:57:09;4.78;;;2.08;;
45358;SDS011;31096;49.292;8.710;2022-07-06T20:02:00;4.43;;;2.30;;
45358;SDS011;31096;49.292;8.710;2022-07-06T20:06:51;7.60;;;2.42;;
45358;SDS011;31096;49.292;8.710;2022-07-06T20:11:42;6.03;;;2.22;;
45358;SDS011;31096;49.292;8.710;2022-07-06T20:16:33;4.23;;;2.30;;
45358;SDS011;31096;49.292;8.710;2022-07-06T20:21:24;5.63;;;2.70;;
45358;SDS011;31096;49.292;8.710;2022-07-06T20:26:16;4.70;;;2.60;;
45358;SDS011;31096;49.292;8.710;2022-07-06T20:31:07;4.28;;;2.30;;
45358;SDS011;31096;49.292;8.710;2022-07-06T20:35:58;6.03;;;2.20;;
45358;SDS011;31096;49.292;8.710;2022-07-06T20:40:49;5.35;;;2.40;;
45358;SDS011;31096;49.292;8.710;2022-07-06T20:45:40;4.00;;;2.23;;
45358;SDS011;31096;49.292;8.710;2022-07-06T20:50:31;4.80;;;2.40;;
45358;SDS011;31096;49.292;8.710;2022-07-06T20:55:22;4.37;;;2.67;;
45358;SDS011;31096;49.292;8.710;2022-07-06T21:00:13;4.93;;;2.40;;
45358;SDS011;31096;49.292;8.710;2022-07-06T21:05:05;5.15;;;2.53;;
45358;SDS011;31096;49.292;8.710;2022-07-06T21:09:57;4.50;;;2.40;;
45358;SDS011;31096;49.292;8.710;2022-07-06T21:14:48;6.32;;;2.60;;
45358;SDS011;31096;49.292;8.710;2022-07-06T21:19:39;4.33;;;2.30;;
45358;SDS011;31096;49.292;8.710;2022-07-06T21:24:30;4.95;;;2.60;;
45358;SDS011;31096;49.292;8.710;2022-07-06T21:29:21;5.77;;;2.20;;
45358;SDS011;31096;49.292;8.710;2022-07-06T21:34:12;4.47;;;2.40;;
45358;SDS011;31096;49.292;8.710;2022-07-06T21:39:02;5.10;;;2.40;;
45358;SDS011;31096;49.292;8.710;2022-07-06T21:43:53;7.63;;;2.43;;
45358;SDS011;31096;49.292;8.710;2022-07-06T21:48:44;5.43;;;2.50;;
45358;SDS011;31096;49.292;8.710;2022-07-06T21:53:35;4.43;;;2.47;;
45358;SDS011;31096;49.292;8.710;2022-07-06T21:58:25;4.83;;;2.30;;
45358;SDS011;31096;49.292;8.710;2022-07-06T22:03:16;5.30;;;2.40;;
45358;SDS011;31096;49.292;8.710;2022-07-06T22:08:07;4.40;;;2.40;;
45358;SDS011;31096;49.292;8.710;2022-07-06T22:12:58;7.40;;;3.00;;
45358;SDS011;31096;49.292;8.710;2022-07-06T22:17:50;4.27;;;2.47;;
45358;SDS011;31096;49.292;8.710;2022-07-06T22:22:42;5.57;;;2.70;;
45358;SDS011;31096;49.292;8.710;2022-07-06T22:27:33;5.30;;;2.47;;
45358;SDS011;31096;49.292;8.710;2022-07-06T22:32:24;4.73;;;2.50;;
45358;SDS011;31096;49.292;8.710;2022-07-06T22:37:14;4.93;;;2.80;;
45358;SDS011;31096;49.292;8.710;2022-07-06T22:42:05;4.45;;;2.42;;
45358;SDS011;31096;49.292;8.710;2022-07-06T22:46:56;6.20;;;2.63;;
45358;SDS011;31096;49.292;8.710;2022-07-06T22:51:47;4.70;;;2.50;;
45358;SDS011;31096;49.292;8.710;2022-07-06T22:56:37;4.95;;;2.60;;
45358;SDS011;31096;49.292;8.710;2022-07-06T23:01:28;5.87;;;3.00;;
45358;SDS011;31096;49.292;8.710;2022-07-06T23:06:20;5.65;;;2.90;;
45358;SDS011;31096;49.292;8.710;2022-07-06T23:11:13;5.67;;;2.87;;
45358;SDS011;31096;49.292;8.710;2022-07-06T23:16:04;4.65;;;2.72;;
45358;SDS011;31096;49.292;8.710;2022-07-06T23:20:57;5.28;;;2.60;;
45358;SDS011;31096;49.292;8.710;2022-07-06T23:25:47;4.80;;;2.90;;
45358;SDS011;31096;49.292;8.710;2022-07-06T23:30:38;4.93;;;2.40;;
45358;SDS011;31096;49.292;8.710;2022-07-06T23:35:29;7.22;;;2.83;;
45358;SDS011;31096;49.292;8.710;2022-07-06T23:40:19;6.70;;;2.90;;
45358;SDS011;31096;49.292;8.710;2022-07-06T23:45:10;4.27;;;2.60;;
45358;SDS011;31096;49.292;8.710;2022-07-06T23:50:01;5.60;;;2.78;;
45358;SDS011;31096;49.292;8.710;2022-07-06T23:54:52;4.33;;;2.73;;
45358;SDS011;31096;49.292;8.710;2022-07-06T23:59:44;5.25;;;2.88;;
